Time;durP1;ratioP1;P1;durP2;ratioP2;P2;SDS_P1;SDS_P2;PMS_P1;PMS_P2;Temp;Humidity;BMP_temperature;BMP_pressure;BME280_temperature;BME280_humidity;BME280_pressure;Samples;Min_cycle;Max_cycle;Signal;HPM_P1;HPM_P2
2024/01/10 00:02:00;;;;;;;30.25;19.65;;;-4.30;99.90;;;;;;4998123;28;20037;-77
2024/01/10 00:04:26;;;;;;;28.88;19.70;;;-4.30;99.90;;;;;;4979422;28;20347;-77
2024/01/10 00:06:51;;;;;;;30.40;19.25;;;-4.30;99.90;;;;;;4987587;28;20474;-77
2024/01/10 00:09:17;;;;;;;29.88;20.40;;;-4.30;99.90;;;;;;4993810;28;20038;-77
2024/01/10 00:11:43;;;;;;;31.80;19.83;;;-4.30;99.90;;;;;;4997600;28;20038;-77
2024/01/10 00:14:09;;;;;;;30.13;19.17;;;-4.30;99.90;;;;;;4982009;28;20042;-77
2024/01/10 00:16:35;;;;;;;27.08;18.85;;;-4.30;99.90;;;;;;4995682;28;20614;-77
2024/01/10 00:19:01;;;;;;;29.00;20.02;;;-4.40;99.90;;;;;;4992638;28;20034;-77
2024/01/10 00:21:27;;;;;;;30.98;19.42;;;-4.30;99.90;;;;;;4991297;28;20046;-77
2024/01/10 00:23:52;;;;;;;27.75;18.92;;;-4.40;99.90;;;;;;4984052;28;20123;-77
2024/01/10 00:26:18;;;;;;;30.77;18.98;;;-4.30;99.90;;;;;;4994949;28;20140;-77
2024/01/10 00:28:46;;;;;;;30.20;20.15;;;-4.40;99.90;;;;;;4983534;28;20042;-77
2024/01/10 00:31:12;;;;;;;28.55;19.98;;;-4.40;99.90;;;;;;4979651;28;20117;-77
2024/01/10 00:33:39;;;;;;;31.55;20.42;;;-4.40;98.20;;;;;;4998632;28;20034;-77
2024/01/10 00:36:06;;;;;;;27.98;19.55;;;-4.50;98.30;;;;;;4987828;28;20539;-77
2024/01/10 00:38:32;;;;;;;32.72;21.15;;;-4.40;99.90;;;;;;4983031;28;20121;-77
2024/01/10 00:40:58;;;;;;;31.65;20.52;;;-4.40;99.90;;;;;;5018028;28;20044;-78
2024/01/10 00:43:23;;;;;;;27.67;20.50;;;-4.50;95.60;;;;;;5002541;28;20568;-77
2024/01/10 00:45:49;;;;;;;33.05;21.77;;;-4.50;86.90;;;;;;5002147;28;20041;-77
2024/01/10 00:48:17;;;;;;;29.92;20.02;;;-4.50;87.40;;;;;;5030382;28;20096;-77
2024/01/10 00:50:44;;;;;;;29.15;19.88;;;-4.50;85.30;;;;;;5031502;28;20521;-78
2024/01/10 00:53:10;;;;;;;32.17;21.20;;;-4.50;77.80;;;;;;4988444;28;20137;-77
2024/01/10 00:55:36;;;;;;;30.08;20.08;;;-4.60;46.50;;;;;;5003327;28;20133;-77
2024/01/10 00:58:02;;;;;;;28.90;18.88;;;-4.60;40.20;;;;;;5035488;28;20133;-77
2024/01/10 01:00:27;;;;;;;33.20;21.10;;;-4.60;28.70;;;;;;4998780;28;20210;-77
2024/01/10 01:02:53;;;;;;;34.47;20.95;;;-4.60;16.30;;;;;;4990130;28;20380;-77
2024/01/10 01:05:19;;;;;;;33.05;21.05;;;-4.60;11.00;;;;;;5005146;28;20053;-77
2024/01/10 01:07:45;;;;;;;32.20;20.92;;;-4.60;2.90;;;;;;4999078;28;20042;-77
2024/01/10 01:10:10;;;;;;;32.88;20.65;;;-4.70;1.00;;;;;;5028162;28;20048;-77
2024/01/10 01:12:36;;;;;;;31.80;21.40;;;-4.70;1.00;;;;;;4999180;28;20136;-77
2024/01/10 01:15:02;;;;;;;32.35;21.50;;;-4.80;1.00;;;;;;4996914;28;20483;-77
2024/01/10 01:17:28;;;;;;;32.75;22.17;;;-4.80;1.00;;;;;;4991124;28;20041;-77
2024/01/10 01:19:54;;;;;;;33.55;21.63;;;-4.80;1.00;;;;;;4988160;28;20041;-77
2024/01/10 01:22:20;;;;;;;36.15;23.48;;;-4.90;1.00;;;;;;4990129;28;20135;-78
2024/01/10 01:24:45;;;;;;;34.10;21.65;;;-4.90;1.00;;;;;;5006438;28;20469;-78
2024/01/10 01:27:12;;;;;;;37.90;23.02;;;-4.90;1.00;;;;;;5005279;28;20152;-77
2024/01/10 01:29:38;;;;;;;35.92;23.27;;;-4.90;1.00;;;;;;5003572;28;20103;-77
2024/01/10 01:32:04;;;;;;;37.92;23.30;;;-4.90;1.00;;;;;;5004569;28;20042;-77
2024/01/10 01:34:30;;;;;;;35.42;23.58;;;-4.90;1.00;;;;;;5002634;28;20034;-78
2024/01/10 01:37:00;;;;;;;34.58;22.98;;;-4.90;1.00;;;;;;4997650;28;20084;-77
2024/01/10 01:39:26;;;;;;;38.17;24.20;;;-4.90;1.00;;;;;;4985249;28;20113;-78
2024/01/10 01:41:52;;;;;;;37.28;23.33;;;-4.90;1.00;;;;;;5004012;28;20578;-77
2024/01/10 01:44:18;;;;;;;39.97;23.65;;;-4.90;1.00;;;;;;4987422;28;20030;-77
2024/01/10 01:46:45;;;;;;;36.50;24.33;;;-4.90;1.00;;;;;;5030808;28;21315;-77
2024/01/10 01:49:11;;;;;;;38.65;24.05;;;-4.90;16.50;;;;;;5000368;28;20118;-77
2024/01/10 01:51:37;;;;;;;37.30;24.75;;;-4.90;48.30;;;;;;4987503;28;20072;-78
2024/01/10 01:54:06;;;;;;;40.63;24.88;;;-4.90;99.70;;;;;;5006875;28;20038;-77
2024/01/10 01:56:35;;;;;;;42.45;25.92;;;-4.80;95.30;;;;;;5030285;28;20121;-78
2024/01/10 01:59:01;;;;;;;38.75;24.50;;;-4.90;99.30;;;;;;5011461;28;20133;-77
2024/01/10 02:01:28;;;;;;;38.33;24.42;;;-4.90;98.10;;;;;;5000312;28;20050;-77
2024/01/10 02:03:55;;;;;;;36.47;23.65;;;-4.90;99.90;;;;;;4983249;28;20122;-78
2024/01/10 02:06:21;;;;;;;42.63;25.75;;;-4.90;99.90;;;;;;4999828;28;20461;-77
2024/01/10 02:08:46;;;;;;;36.08;23.80;;;-4.90;99.90;;;;;;4998079;28;20080;-77
2024/01/10 02:11:12;;;;;;;42.90;24.42;;;-4.80;99.90;;;;;;4995824;28;20084;-77
2024/01/10 02:13:38;;;;;;;41.28;24.58;;;-4.80;99.90;;;;;;4984630;28;20077;-77
2024/01/10 02:16:05;;;;;;;42.08;25.88;;;-4.80;99.90;;;;;;4983503;28;20049;-78
2024/01/10 02:18:31;;;;;;;38.58;24.23;;;-4.80;99.90;;;;;;5024498;28;20524;-78
2024/01/10 02:20:59;;;;;;;38.00;23.73;;;-4.80;99.90;;;;;;4981839;28;20315;-78
2024/01/10 02:23:28;;;;;;;42.17;24.35;;;-4.80;99.90;;;;;;4997484;28;20153;-78
2024/01/10 02:25:54;;;;;;;37.47;22.92;;;-4.80;99.90;;;;;;5000470;28;20096;-78
2024/01/10 02:28:19;;;;;;;37.25;22.75;;;-4.70;99.90;;;;;;4982646;28;20042;-78
2024/01/10 02:30:47;;;;;;;38.10;24.17;;;-4.70;99.90;;;;;;4982430;28;20040;-77
2024/01/10 02:33:12;;;;;;;34.88;22.80;;;-4.70;99.90;;;;;;4984359;28;20393;-77
2024/01/10 02:35:38;;;;;;;40.80;24.27;;;-4.80;99.90;;;;;;4995389;28;20148;-77
2024/01/10 02:38:06;;;;;;;40.53;24.63;;;-4.80;99.90;;;;;;4993037;28;20980;-77
2024/01/10 02:40:31;;;;;;;37.13;21.92;;;-4.70;99.90;;;;;;4998297;28;20042;-77
2024/01/10 02:42:57;;;;;;;37.13;23.52;;;-4.80;99.90;;;;;;4987574;28;20077;-78
2024/01/10 02:45:23;;;;;;;37.75;24.15;;;-4.70;99.90;;;;;;4995370;28;20481;-77
2024/01/10 02:47:48;;;;;;;40.90;24.67;;;-4.70;99.90;;;;;;5010753;28;20659;-78
2024/01/10 02:50:14;;;;;;;41.22;25.83;;;-4.70;99.90;;;;;;4999010;28;20049;-78
2024/01/10 02:52:40;;;;;;;39.20;24.15;;;-4.60;99.90;;;;;;4980701;28;20046;-78
2024/01/10 02:55:06;;;;;;;37.35;23.70;;;-4.60;1.00;;;;;;4999051;28;20088;-78
2024/01/10 02:57:32;;;;;;;38.63;24.60;;;-4.60;1.00;;;;;;4984930;28;20053;-77
2024/01/10 02:59:57;;;;;;;37.95;23.85;;;-4.60;1.00;;;;;;4994322;28;20058;-78
2024/01/10 03:02:23;;;;;;;34.80;23.38;;;-4.50;1.00;;;;;;4985195;28;20045;-78
2024/01/10 03:04:50;;;;;;;35.65;22.35;;;-4.60;1.00;;;;;;4983305;28;20416;-78
2024/01/10 03:07:15;;;;;;;36.35;23.42;;;-4.50;1.00;;;;;;5027973;28;20057;-78
2024/01/10 03:09:41;;;;;;;36.92;23.20;;;-4.50;1.00;;;;;;4991765;28;20038;-78
2024/01/10 03:12:07;;;;;;;37.80;24.00;;;-4.60;1.00;;;;;;5030351;28;20046;-77
2024/01/10 03:14:34;;;;;;;33.90;23.05;;;-4.60;1.00;;;;;;4995608;28;20066;-80
2024/01/10 03:17:00;;;;;;;36.05;23.15;;;-4.60;1.00;;;;;;4984825;28;20755;-78
2024/01/10 03:19:25;;;;;;;36.58;22.05;;;-4.60;1.00;;;;;;4995364;28;20107;-78
2024/01/10 03:21:51;;;;;;;35.38;23.67;;;-4.60;99.90;;;;;;4983901;28;20049;-78
2024/01/10 03:24:17;;;;;;;33.55;21.90;;;-4.60;99.90;;;;;;4983197;28;20124;-77
2024/01/10 03:26:43;;;;;;;35.58;22.60;;;-4.70;99.90;;;;;;4996421;28;20425;-78
2024/01/10 03:29:09;;;;;;;34.25;22.40;;;-4.70;99.90;;;;;;4983724;28;20042;-78
2024/01/10 03:31:35;;;;;;;37.75;23.05;;;-4.70;99.90;;;;;;4975611;28;20088;-77
2024/01/10 03:34:00;;;;;;;40.30;22.33;;;-4.70;99.90;;;;;;4994350;28;21125;-78
2024/01/10 03:36:26;;;;;;;35.20;22.30;;;-4.70;99.90;;;;;;5012670;28;20115;-77
2024/01/10 03:38:52;;;;;;;32.58;22.15;;;-4.70;99.90;;;;;;4992934;28;20064;-78
2024/01/10 03:41:19;;;;;;;37.00;22.27;;;-4.70;1.00;;;;;;5023446;28;20045;-77
2024/01/10 03:43:48;;;;;;;36.15;21.83;;;-4.80;99.90;;;;;;5011597;28;20030;-78
2024/01/10 03:46:15;;;;;;;36.53;21.45;;;-4.70;99.90;;;;;;4988186;28;20070;-78
2024/01/10 03:48:47;;;;;;;31.92;21.17;;;-4.70;99.90;;;;;;4997541;28;20746;-78
2024/01/10 03:51:14;;;;;;;30.65;20.55;;;-4.70;99.90;;;;;;4982840;28;20100;-77
2024/01/10 03:53:40;;;;;;;31.65;21.25;;;-4.70;99.90;;;;;;4998961;28;20450;-78
2024/01/10 03:56:06;;;;;;;31.77;20.85;;;-4.70;99.90;;;;;;4989771;28;20147;-77
2024/01/10 03:58:32;;;;;;;30.02;19.83;;;-4.70;99.90;;;;;;4999710;28;20125;-77
2024/01/10 04:00:58;;;;;;;32.60;20.35;;;-4.70;99.90;;;;;;4995654;28;20116;-77
2024/01/10 04:03:24;;;;;;;34.97;21.48;;;-4.80;99.90;;;;;;4996244;28;20108;-78
2024/01/10 04:05:49;;;;;;;32.78;21.13;;;-4.80;99.90;;;;;;4992081;28;20049;-78
2024/01/10 04:08:15;;;;;;;32.33;19.85;;;-4.80;99.90;;;;;;4975726;28;20152;-78
2024/01/10 04:10:41;;;;;;;33.78;20.20;;;-4.80;99.90;;;;;;5013854;28;20121;-78
2024/01/10 04:13:07;;;;;;;31.73;21.10;;;-4.80;99.90;;;;;;4980985;28;20042;-78
2024/01/10 04:15:34;;;;;;;31.33;21.10;;;-4.80;99.90;;;;;;4997282;28;20085;-78
2024/01/10 04:18:00;;;;;;;32.63;21.60;;;-4.80;99.90;;;;;;4998969;28;20176;-78
2024/01/10 04:20:26;;;;;;;32.65;20.75;;;-4.80;99.90;;;;;;4996764;28;20438;-78
2024/01/10 04:22:51;;;;;;;31.58;21.67;;;-4.80;99.90;;;;;;4993268;28;20140;-77
2024/01/10 04:25:17;;;;;;;35.67;22.35;;;-4.70;99.90;;;;;;4997835;28;20411;-78
2024/01/10 04:27:43;;;;;;;34.03;22.20;;;-4.80;99.90;;;;;;4993223;28;20049;-77
2024/01/10 04:30:09;;;;;;;29.38;19.95;;;-4.80;99.90;;;;;;5011330;28;20038;-78
2024/01/10 04:32:35;;;;;;;32.83;21.25;;;-4.80;99.90;;;;;;4994243;28;20121;-78
2024/01/10 04:35:00;;;;;;;34.50;23.10;;;-4.80;99.90;;;;;;5006080;28;20121;-78
2024/01/10 04:37:26;;;;;;;37.42;21.92;;;-4.90;99.90;;;;;;5024562;28;20054;-78
2024/01/10 04:39:52;;;;;;;31.88;21.95;;;-4.90;99.90;;;;;;4985810;28;20042;-77
2024/01/10 04:42:18;;;;;;;32.05;20.98;;;-4.90;99.90;;;;;;4982712;28;20208;-78
2024/01/10 04:44:44;;;;;;;35.25;21.70;;;-4.90;99.90;;;;;;4988588;28;20076;-78
2024/01/10 04:47:09;;;;;;;32.03;20.85;;;-4.90;99.90;;;;;;4990485;28;20045;-78
2024/01/10 04:49:35;;;;;;;32.67;20.55;;;-4.90;99.90;;;;;;4997437;28;20473;-78
2024/01/10 04:52:01;;;;;;;31.65;21.17;;;-4.90;99.90;;;;;;4994339;28;20063;-78
2024/01/10 04:54:27;;;;;;;33.47;21.13;;;-4.90;99.90;;;;;;4982126;28;20038;-78
2024/01/10 04:56:53;;;;;;;32.80;21.60;;;-4.90;99.90;;;;;;4981109;28;20309;-78
2024/01/10 04:59:19;;;;;;;31.50;21.55;;;-5.00;99.90;;;;;;4994508;28;20552;-78
2024/01/10 05:01:45;;;;;;;34.92;22.20;;;-5.00;99.90;;;;;;4982477;28;20202;-78
2024/01/10 05:04:11;;;;;;;31.38;20.20;;;-5.00;99.90;;;;;;5016834;28;20040;-78
2024/01/10 05:06:36;;;;;;;33.22;22.13;;;-4.90;99.90;;;;;;4978548;28;20042;-78
2024/01/10 05:09:04;;;;;;;37.63;23.05;;;-5.10;99.90;;;;;;4995711;28;20053;-78
2024/01/10 05:11:30;;;;;;;34.55;22.48;;;-5.10;99.90;;;;;;4984981;28;20104;-78
2024/01/10 05:13:56;;;;;;;32.95;21.65;;;-5.10;99.90;;;;;;4998584;28;20508;-78
2024/01/10 05:16:21;;;;;;;35.10;22.75;;;-5.10;99.90;;;;;;4982584;28;20052;-78
2024/01/10 05:18:47;;;;;;;37.17;23.30;;;-5.10;99.90;;;;;;4998114;28;20411;-78
2024/01/10 05:21:13;;;;;;;33.10;22.85;;;-5.10;99.90;;;;;;4981803;28;20073;-78
2024/01/10 05:23:40;;;;;;;33.08;21.92;;;-5.10;99.90;;;;;;4981079;28;20058;-78
2024/01/10 05:26:06;;;;;;;36.55;23.10;;;-5.20;99.90;;;;;;4991611;28;20042;-78
2024/01/10 05:28:32;;;;;;;34.92;23.55;;;-5.20;99.90;;;;;;4996676;28;20037;-78
2024/01/10 05:31:01;;;;;;;36.25;23.40;;;-5.10;99.90;;;;;;5006105;28;20434;-78
2024/01/10 05:33:26;;;;;;;34.47;22.40;;;-5.20;99.90;;;;;;5000090;28;20149;-78
2024/01/10 05:35:52;;;;;;;34.33;21.95;;;-5.20;99.90;;;;;;4992345;28;21458;-78
2024/01/10 05:38:18;;;;;;;33.15;22.88;;;-5.20;99.90;;;;;;4992523;28;20213;-78
2024/01/10 05:40:45;;;;;;;35.58;23.67;;;-5.30;99.90;;;;;;4982998;28;20057;-78
2024/01/10 05:43:11;;;;;;;34.80;23.00;;;-5.20;99.90;;;;;;4997143;28;20053;-78
2024/01/10 05:45:36;;;;;;;35.85;23.70;;;-5.10;99.90;;;;;;4998212;28;20426;-78
2024/01/10 05:48:03;;;;;;;36.40;23.42;;;-5.10;99.90;;;;;;4997776;28;20072;-78
2024/01/10 05:50:28;;;;;;;34.80;23.08;;;-5.10;99.90;;;;;;4996901;28;20057;-78
2024/01/10 05:52:54;;;;;;;33.63;21.65;;;-5.20;99.90;;;;;;5011813;28;20057;-78
2024/01/10 05:55:20;;;;;;;39.63;23.38;;;-5.20;99.90;;;;;;4994753;28;20417;-78
2024/01/10 05:57:46;;;;;;;35.35;23.48;;;-5.20;99.90;;;;;;5000095;28;20049;-78
2024/01/10 06:00:12;;;;;;;35.30;24.77;;;-5.20;99.90;;;;;;4992151;28;20449;-77
2024/01/10 06:02:42;;;;;;;34.38;23.00;;;-5.10;99.90;;;;;;4998568;28;20049;-78
2024/01/10 06:05:11;;;;;;;38.65;24.67;;;-5.20;99.90;;;;;;4998396;28;20050;-77
2024/01/10 06:07:38;;;;;;;34.00;23.45;;;-5.20;99.90;;;;;;4985905;28;20042;-78
2024/01/10 06:10:04;;;;;;;36.55;23.90;;;-5.10;99.90;;;;;;5025293;28;20228;-77
2024/01/10 06:12:30;;;;;;;38.03;24.40;;;-5.20;99.90;;;;;;5011555;28;20165;-77
2024/01/10 06:14:57;;;;;;;37.33;24.15;;;-5.20;99.90;;;;;;4983891;28;20124;-77
2024/01/10 06:17:23;;;;;;;35.78;23.58;;;-5.20;99.90;;;;;;4986836;28;20512;-78
2024/01/10 06:19:50;;;;;;;35.15;24.75;;;-5.20;99.90;;;;;;4998912;28;20046;-77
2024/01/10 06:22:16;;;;;;;38.25;24.77;;;-5.30;99.90;;;;;;4996620;28;20113;-77
2024/01/10 06:24:42;;;;;;;36.10;24.45;;;-5.30;99.90;;;;;;5000901;28;20072;-78
2024/01/10 06:27:09;;;;;;;38.35;24.92;;;-5.20;99.90;;;;;;4997479;28;20042;-78
2024/01/10 06:29:36;;;;;;;37.72;24.15;;;-5.30;99.90;;;;;;4999969;28;20043;-78
2024/01/10 06:32:06;;;;;;;38.47;25.60;;;-5.30;99.90;;;;;;5015275;28;20532;-78
2024/01/10 06:34:34;;;;;;;39.15;25.88;;;-5.30;99.90;;;;;;5000992;28;20453;-78
2024/01/10 06:37:00;;;;;;;43.25;26.20;;;-5.30;99.90;;;;;;4998756;28;20061;-77
2024/01/10 06:39:27;;;;;;;39.72;24.60;;;-5.20;99.90;;;;;;4996323;28;20133;-78
2024/01/10 06:41:53;;;;;;;39.88;25.02;;;-5.30;99.90;;;;;;4994892;28;20520;-78
2024/01/10 06:44:19;;;;;;;41.03;25.10;;;-5.30;99.90;;;;;;4980704;28;20066;-78
2024/01/10 06:46:45;;;;;;;37.45;24.67;;;-5.20;99.90;;;;;;5013781;28;20042;-77
2024/01/10 06:49:11;;;;;;;39.58;25.17;;;-5.30;99.90;;;;;;4998408;28;20048;-78
2024/01/10 06:51:37;;;;;;;38.28;25.92;;;-5.30;99.90;;;;;;4991250;28;20524;-78
2024/01/10 06:54:03;;;;;;;40.15;25.80;;;-5.30;99.90;;;;;;4995775;28;21406;-78
2024/01/10 06:56:33;;;;;;;40.22;24.75;;;-5.40;99.90;;;;;;4994860;28;20076;-78
2024/01/10 06:59:00;;;;;;;39.28;25.50;;;-5.30;99.90;;;;;;4984712;28;21378;-78
2024/01/10 07:01:26;;;;;;;42.15;25.23;;;-5.30;99.90;;;;;;4981437;28;20452;-78
2024/01/10 07:03:54;;;;;;;42.20;26.10;;;-5.30;99.90;;;;;;5000717;28;20042;-78
2024/01/10 07:06:21;;;;;;;41.88;25.88;;;-5.30;99.90;;;;;;4982267;28;20532;-78
2024/01/10 07:08:49;;;;;;;40.72;26.67;;;-5.30;99.90;;;;;;4983119;28;20048;-78
2024/01/10 07:11:19;;;;;;;42.83;26.98;;;-5.30;99.90;;;;;;4982729;28;20469;-78
2024/01/10 07:13:45;;;;;;;39.35;25.17;;;-5.30;99.90;;;;;;4990726;28;20046;-78
2024/01/10 07:16:11;;;;;;;40.33;25.85;;;-5.30;99.90;;;;;;4998643;28;20053;-78
2024/01/10 07:18:37;;;;;;;39.15;24.95;;;-5.30;99.90;;;;;;5009888;28;20049;-78
2024/01/10 07:21:03;;;;;;;41.65;25.65;;;-5.30;99.90;;;;;;4981868;28;20038;-78
2024/01/10 07:23:29;;;;;;;39.38;25.65;;;-5.30;99.90;;;;;;4990102;28;20136;-77
2024/01/10 07:25:55;;;;;;;43.90;26.52;;;-5.30;99.90;;;;;;4994901;28;20045;-78
2024/01/10 07:28:21;;;;;;;39.90;25.13;;;-5.20;99.90;;;;;;4989273;28;20620;-77
2024/01/10 07:30:48;;;;;;;40.75;24.35;;;-5.20;99.90;;;;;;4979502;28;20049;-78
2024/01/10 07:33:14;;;;;;;38.47;25.00;;;-5.20;99.90;;;;;;4991210;28;20342;-78
2024/01/10 07:35:39;;;;;;;38.08;25.20;;;-5.20;99.90;;;;;;4994455;28;20045;-78
2024/01/10 07:38:07;;;;;;;40.33;25.30;;;-5.20;99.90;;;;;;4988577;28;20188;-78
2024/01/10 07:40:33;;;;;;;43.42;25.98;;;-5.10;99.90;;;;;;4994792;28;20451;-78
2024/01/10 07:42:59;;;;;;;38.53;23.77;;;-5.20;99.90;;;;;;4977042;28;20041;-78
2024/01/10 07:45:25;;;;;;;38.42;24.88;;;-5.20;99.90;;;;;;4992124;28;20223;-78
2024/01/10 07:47:51;;;;;;;39.38;25.38;;;-5.20;99.90;;;;;;4995438;28;20415;-78
2024/01/10 07:50:17;;;;;;;39.38;25.63;;;-5.20;99.90;;;;;;4980169;28;20042;-78
2024/01/10 07:52:44;;;;;;;38.65;25.08;;;-5.20;99.90;;;;;;5010926;28;20045;-78
2024/01/10 07:55:10;;;;;;;38.15;23.92;;;-5.10;99.90;;;;;;4982379;28;20049;-78
2024/01/10 07:57:39;;;;;;;37.67;23.98;;;-5.10;99.90;;;;;;4982972;28;20037;-78
2024/01/10 08:00:10;;;;;;;40.10;24.50;;;-5.10;99.90;;;;;;4993147;28;20147;-78
2024/01/10 08:02:36;;;;;;;40.78;24.50;;;-5.10;99.90;;;;;;4990391;28;20053;-78
2024/01/10 08:05:08;;;;;;;43.65;25.63;;;-5.10;99.90;;;;;;4991600;28;20050;-78
2024/01/10 08:07:34;;;;;;;38.67;24.55;;;-5.10;99.90;;;;;;4996400;28;20128;-78
2024/01/10 08:10:09;;;;;;;39.08;23.13;;;-5.10;98.70;;;;;;4990956;28;20041;-78
2024/01/10 08:12:36;;;;;;;39.03;23.70;;;-5.00;99.90;;;;;;4998010;28;20042;-78
2024/01/10 08:15:02;;;;;;;41.45;23.27;;;-5.00;99.90;;;;;;4994477;28;20037;-78
2024/01/10 08:17:28;;;;;;;38.50;21.83;;;-5.00;99.90;;;;;;4998145;28;20063;-79
2024/01/10 08:19:53;;;;;;;37.47;22.02;;;-5.00;99.90;;;;;;4996298;28;20508;-78
2024/01/10 08:22:19;;;;;;;39.65;23.33;;;-4.80;99.90;;;;;;4984929;28;20096;-79
2024/01/10 08:24:46;;;;;;;39.00;21.48;;;-4.80;94.10;;;;;;4992034;28;20479;-77
2024/01/10 08:27:12;;;;;;;37.90;21.42;;;-4.80;84.00;;;;;;5008004;28;20053;-79
2024/01/10 08:29:38;;;;;;;39.28;21.67;;;-4.80;86.90;;;;;;4993048;28;20042;-78
2024/01/10 08:32:04;;;;;;;39.63;20.38;;;-4.80;73.10;;;;;;4990480;28;20102;-78
2024/01/10 08:34:30;;;;;;;39.25;21.08;;;-4.70;83.20;;;;;;4995580;28;20159;-78
2024/01/10 08:36:55;;;;;;;40.75;21.42;;;-4.60;99.70;;;;;;4992080;28;20133;-78
2024/01/10 08:39:25;;;;;;;38.05;20.38;;;-4.50;99.90;;;;;;4993472;28;20396;-78
2024/01/10 08:41:52;;;;;;;39.38;20.35;;;-4.50;99.90;;;;;;5017575;28;20152;-78
2024/01/10 08:44:18;;;;;;;40.38;19.67;;;-4.50;99.90;;;;;;5001265;28;20041;-79
2024/01/10 08:46:44;;;;;;;38.63;19.75;;;-4.40;97.40;;;;;;4989411;28;20544;-79
2024/01/10 08:49:10;;;;;;;36.03;19.27;;;-4.40;98.30;;;;;;5031420;28;20077;-78
2024/01/10 08:51:36;;;;;;;36.10;18.45;;;-4.30;94.00;;;;;;4980204;28;20478;-78
2024/01/10 08:54:02;;;;;;;34.25;18.30;;;-4.30;78.70;;;;;;4997153;28;20037;-78
2024/01/10 08:56:27;;;;;;;37.47;19.77;;;-4.30;71.70;;;;;;5023727;28;20045;-78
2024/01/10 08:58:53;;;;;;;36.47;18.13;;;-4.20;65.20;;;;;;4991035;28;20104;-78
2024/01/10 09:01:19;;;;;;;33.22;18.08;;;-4.20;60.40;;;;;;4994799;28;20039;-78
2024/01/10 09:03:46;;;;;;;38.20;19.73;;;-4.10;44.60;;;;;;4992047;28;20046;-78
2024/01/10 09:06:12;;;;;;;32.05;16.75;;;-4.00;27.90;;;;;;5016155;28;20046;-78
2024/01/10 09:08:39;;;;;;;35.15;17.77;;;-4.00;15.50;;;;;;4995729;28;20077;-78
2024/01/10 09:11:05;;;;;;;31.33;16.88;;;-4.00;8.00;;;;;;5019762;28;20043;-78
2024/01/10 09:13:31;;;;;;;33.45;16.67;;;-3.90;1.00;;;;;;5012480;28;20038;-78
2024/01/10 09:15:57;;;;;;;31.20;16.20;;;-3.90;1.00;;;;;;4990699;28;20053;-78
2024/01/10 09:18:23;;;;;;;31.02;17.35;;;-3.90;1.00;;;;;;5029041;28;20072;-78
2024/01/10 09:20:48;;;;;;;30.13;16.92;;;-3.80;1.00;;;;;;4997287;28;20148;-79
2024/01/10 09:23:15;;;;;;;30.55;17.17;;;-3.70;1.00;;;;;;4993413;28;20069;-79
2024/01/10 09:25:41;;;;;;;32.45;16.20;;;-3.70;1.00;;;;;;5025589;28;20042;-78
2024/01/10 09:28:07;;;;;;;30.48;16.17;;;-3.70;1.00;;;;;;4998222;28;20049;-78
2024/01/10 09:30:33;;;;;;;34.75;17.25;;;-3.60;1.00;;;;;;4983735;28;20069;-78
2024/01/10 09:33:00;;;;;;;36.13;17.90;;;-3.60;1.00;;;;;;4995939;28;20065;-79
2024/01/10 09:35:26;;;;;;;28.38;15.10;;;-3.50;1.00;;;;;;5020903;28;20281;-78
2024/01/10 09:37:53;;;;;;;29.60;16.48;;;-3.50;1.00;;;;;;5012956;28;20073;-79
2024/01/10 09:40:21;;;;;;;31.55;16.50;;;-3.50;1.00;;;;;;5027949;28;20069;-79
2024/01/10 09:42:51;;;;;;;30.40;16.90;;;-3.40;1.00;;;;;;4999255;28;20180;-79
2024/01/10 09:45:18;;;;;;;30.45;16.35;;;-3.40;1.00;;;;;;4994740;28;20267;-80
2024/01/10 09:47:48;;;;;;;34.63;17.80;;;-3.30;1.00;;;;;;5010871;28;20391;-79
2024/01/10 09:50:14;;;;;;;30.55;16.23;;;-3.30;1.00;;;;;;4982124;28;20045;-80
2024/01/10 09:52:56;;;;;;;29.60;16.42;;;-3.30;99.90;;;;;;5002586;28;20042;-80
2024/01/10 09:55:23;;;;;;;35.25;16.35;;;-3.20;99.90;;;;;;4999169;28;20045;-80
2024/01/10 09:57:49;;;;;;;31.48;17.13;;;-3.20;99.90;;;;;;4994357;28;20555;-80
2024/01/10 10:00:16;;;;;;;26.67;15.45;;;-3.20;99.90;;;;;;4992636;28;20044;-81
2024/01/10 10:02:42;;;;;;;27.55;15.55;;;-3.10;99.90;;;;;;5015623;28;20077;-80
2024/01/10 10:05:16;;;;;;;26.90;15.27;;;-3.10;99.90;;;;;;4990188;28;20046;-81
2024/01/10 10:07:55;;;;;;;28.17;15.18;;;-3.10;99.90;;;;;;5010403;28;20042;-80
2024/01/10 10:10:21;;;;;;;30.27;15.63;;;-3.00;99.90;;;;;;4997929;28;20042;-81
2024/01/10 10:12:47;;;;;;;27.13;14.60;;;-3.00;99.90;;;;;;5004862;28;20367;-82
2024/01/10 10:15:15;;;;;;;24.27;14.38;;;-3.00;99.90;;;;;;4991632;28;20042;-81
2024/01/10 10:17:47;;;;;;;26.95;16.35;;;-2.90;99.90;;;;;;4991270;28;20557;-81
2024/01/10 10:20:27;;;;;;;28.25;15.20;;;-2.90;99.90;;;;;;5022522;28;20046;-81
2024/01/10 10:23:04;;;;;;;27.63;15.27;;;-2.90;99.90;;;;;;4991817;28;20791;-81
2024/01/10 10:25:34;;;;;;;27.60;16.23;;;-2.80;99.90;;;;;;4992713;28;20080;-81
2024/01/10 10:28:01;;;;;;;25.25;14.38;;;-2.70;99.90;;;;;;5029502;28;20076;-81
2024/01/10 10:30:32;;;;;;;26.10;14.25;;;-2.70;99.90;;;;;;5007452;28;20045;-81
2024/01/10 10:32:58;;;;;;;25.88;14.27;;;-2.60;99.90;;;;;;4995163;28;20068;-82
2024/01/10 10:35:24;;;;;;;27.88;15.00;;;-2.60;99.90;;;;;;4980773;28;20983;-81
2024/01/10 10:37:52;;;;;;;23.35;13.93;;;-2.50;99.90;;;;;;4994048;28;20054;-81
2024/01/10 10:40:19;;;;;;;24.23;13.43;;;-2.50;99.90;;;;;;5024356;28;20072;-81
2024/01/10 10:42:47;;;;;;;24.95;13.90;;;-2.40;99.90;;;;;;5013928;28;20416;-82
2024/01/10 10:45:19;;;;;;;23.55;13.10;;;-2.40;99.90;;;;;;4996797;28;20034;-82
2024/01/10 10:47:50;;;;;;;23.00;13.50;;;-2.30;99.90;;;;;;5014008;28;20129;-81
2024/01/10 10:50:28;;;;;;;24.98;13.23;;;-2.30;99.90;;;;;;4987223;28;20297;-81
2024/01/10 10:52:58;;;;;;;25.75;13.80;;;-2.30;99.90;;;;;;4977905;28;20992;-81
2024/01/10 10:55:26;;;;;;;22.30;12.93;;;-2.20;99.90;;;;;;5009939;28;20561;-81
2024/01/10 10:57:53;;;;;;;20.90;13.05;;;-2.20;99.90;;;;;;4981370;28;20046;-82
2024/01/10 11:00:21;;;;;;;22.63;13.30;;;-2.10;99.90;;;;;;4992975;28;20042;-82
2024/01/10 11:02:49;;;;;;;21.52;12.75;;;-2.10;99.90;;;;;;4996396;28;20041;-82
2024/01/10 11:05:16;;;;;;;23.13;13.07;;;-2.00;99.90;;;;;;5011811;28;20041;-82
2024/01/10 11:07:44;;;;;;;23.55;13.07;;;-2.00;99.90;;;;;;4995046;28;20049;-82
2024/01/10 11:10:37;;;;;;;32.03;13.30;;;-2.00;99.90;;;;;;4994855;28;20519;-82
2024/01/10 11:13:32;;;;;;;21.13;12.60;;;-2.00;99.90;;;;;;5023558;28;20210;-82
2024/01/10 11:16:20;;;;;;;22.45;12.63;;;-1.90;99.90;;;;;;4982068;28;20515;-82
2024/01/10 11:19:10;;;;;;;23.63;13.07;;;-1.80;99.90;;;;;;4997910;28;20120;-82
2024/01/10 11:21:50;;;;;;;20.73;12.03;;;-1.80;99.90;;;;;;4996012;28;20121;-82
2024/01/10 11:24:17;;;;;;;23.88;13.10;;;-1.70;98.40;;;;;;4979264;28;20045;-82
2024/01/10 11:26:44;;;;;;;20.90;12.73;;;-1.70;92.30;;;;;;4993477;28;20083;-82
2024/01/10 11:29:10;;;;;;;19.38;12.05;;;-1.60;91.80;;;;;;4992703;28;20143;-81
2024/01/10 11:31:38;;;;;;;22.05;12.88;;;-1.60;69.70;;;;;;5015110;28;20520;-82
2024/01/10 11:34:05;;;;;;;23.33;13.43;;;-1.70;57.00;;;;;;4997857;28;20192;-81
2024/01/10 11:36:33;;;;;;;20.85;12.65;;;-1.60;77.60;;;;;;4982740;28;20469;-84
2024/01/10 11:39:03;;;;;;;22.30;13.18;;;-1.50;84.20;;;;;;5000131;28;20041;-84
2024/01/10 11:41:36;;;;;;;20.98;12.32;;;-1.60;82.00;;;;;;4981884;28;20052;-84
2024/01/10 11:44:11;;;;;;;23.70;13.30;;;-1.50;74.60;;;;;;5009090;28;20092;-83
2024/01/10 11:46:49;;;;;;;23.35;13.13;;;-1.50;85.30;;;;;;4992743;28;20332;-83
2024/01/10 11:49:18;;;;;;;26.38;14.63;;;-1.40;98.00;;;;;;4980723;28;20520;-83
2024/01/10 11:51:44;;;;;;;21.77;13.57;;;-1.40;99.00;;;;;;4984193;28;20033;-83
2024/01/10 11:54:10;;;;;;;23.80;12.90;;;-1.40;99.90;;;;;;5008766;28;20077;-83
2024/01/10 11:56:44;;;;;;;25.52;14.60;;;-1.30;99.90;;;;;;5005224;28;20797;-83
2024/01/10 11:59:11;;;;;;;24.05;13.20;;;-1.40;93.10;;;;;;4998804;28;20037;-83
2024/01/10 12:01:39;;;;;;;23.90;13.57;;;-1.30;91.60;;;;;;4995376;28;20124;-83
2024/01/10 12:04:11;;;;;;;23.77;13.77;;;-1.30;94.30;;;;;;4979706;28;20056;-83
2024/01/10 12:06:38;;;;;;;22.17;13.45;;;-1.30;91.20;;;;;;4980160;28;20034;-83
2024/01/10 12:09:14;;;;;;;21.70;12.95;;;-1.30;99.10;;;;;;5015105;28;20041;-83
2024/01/10 12:11:40;;;;;;;20.75;12.45;;;-1.20;99.90;;;;;;4992478;28;20049;-83
2024/01/10 12:14:09;;;;;;;20.95;13.35;;;-1.20;99.90;;;;;;5012159;28;20057;-83
2024/01/10 12:16:35;;;;;;;23.08;13.63;;;-1.20;97.90;;;;;;4993544;28;20042;-83
2024/01/10 12:19:01;;;;;;;21.27;13.85;;;-1.10;99.90;;;;;;4981127;28;21072;-84
2024/01/10 12:21:27;;;;;;;22.63;13.10;;;-1.00;99.90;;;;;;4993717;28;20042;-83
2024/01/10 12:23:53;;;;;;;21.13;13.43;;;-1.00;99.90;;;;;;4994973;28;20054;-81
2024/01/10 12:26:19;;;;;;;20.80;12.95;;;-1.00;99.90;;;;;;5008321;28;20042;-81
2024/01/10 12:28:55;;;;;;;21.65;12.93;;;-1.00;99.90;;;;;;4989454;28;20420;-81